createdAt,value
2019-05-21T00:00:54.753Z,13.50
2019-05-21T00:03:42.575Z,13.50
2019-05-21T00:06:30.168Z,13.50
2019-05-21T00:09:18.142Z,13.50
2019-05-21T00:12:06.148Z,13.50
2019-05-21T00:14:54.349Z,13.50
2019-05-21T00:17:42.253Z,13.50
2019-05-21T00:20:29.860Z,13.40
2019-05-21T00:23:17.477Z,13.40
2019-05-21T00:26:05.329Z,13.40
2019-05-21T00:29:29.706Z,13.40
2019-05-21T00:32:53.781Z,13.40
2019-05-21T00:36:19.048Z,13.30
2019-05-21T00:39:43.627Z,13.30
2019-05-21T00:42:34.729Z,13.20
2019-05-21T00:45:22.776Z,13.20
2019-05-21T00:48:10.564Z,13.20
2019-05-21T00:50:58.280Z,13.20
2019-05-21T00:53:45.996Z,13.20
2019-05-21T00:56:33.818Z,13.20
2019-05-21T00:59:21.476Z,13.20
2019-05-21T01:02:09.477Z,13.10
2019-05-21T01:05:00.573Z,13.10
2019-05-21T01:07:46.726Z,13.10
2019-05-21T01:10:34.624Z,13.10
2019-05-21T01:13:22.519Z,13.10
2019-05-21T01:16:10.482Z,13.00
2019-05-21T01:18:58.440Z,13.00
2019-05-21T01:21:46.419Z,13.00
2019-05-21T01:24:34.309Z,13.00
2019-05-21T01:27:22.021Z,13.00
2019-05-21T01:30:10.148Z,12.90
2019-05-21T01:32:57.677Z,12.90
2019-05-21T01:35:45.643Z,13.00
2019-05-21T01:38:33.635Z,13.00
2019-05-21T01:41:21.621Z,13.00
2019-05-21T01:44:09.268Z,13.00
2019-05-21T01:46:57.270Z,12.90
2019-05-21T01:49:45.093Z,12.90
2019-05-21T01:52:33.188Z,12.90
2019-05-21T01:55:21.060Z,12.90
2019-05-21T01:58:08.984Z,12.90
2019-05-21T02:00:56.616Z,12.90
2019-05-21T02:03:44.828Z,12.90
2019-05-21T02:06:32.496Z,12.90
2019-05-21T02:09:20.113Z,12.90
2019-05-21T02:12:10.782Z,12.80
2019-05-21T02:14:57.450Z,12.80
2019-05-21T02:17:45.170Z,12.80
2019-05-21T02:20:32.948Z,12.80
2019-05-21T02:23:20.890Z,12.80
2019-05-21T02:26:09.146Z,12.80
2019-05-21T02:28:56.977Z,12.80
2019-05-21T02:31:44.794Z,12.80
2019-05-21T02:34:32.530Z,12.80
2019-05-21T02:37:20.510Z,12.80
2019-05-21T02:40:11.000Z,12.80
2019-05-21T02:42:58.680Z,12.80
2019-05-21T02:45:46.393Z,12.80
2019-05-21T02:48:34.454Z,12.80
2019-05-21T02:51:22.190Z,12.70
2019-05-21T02:54:09.743Z,12.80
2019-05-21T02:56:57.726Z,12.70
2019-05-21T02:59:47.416Z,12.70
2019-05-21T03:02:41.472Z,12.70
2019-05-21T03:05:29.676Z,12.70
2019-05-21T03:08:17.441Z,12.70
2019-05-21T03:11:05.244Z,12.70
2019-05-21T03:13:52.949Z,12.70
2019-05-21T03:16:41.005Z,12.60
2019-05-21T03:19:28.646Z,12.60
2019-05-21T03:22:16.721Z,12.60
2019-05-21T03:25:06.060Z,12.60
2019-05-21T03:27:53.627Z,12.60
2019-05-21T03:30:41.506Z,12.70
2019-05-21T03:33:29.149Z,12.70
2019-05-21T03:36:31.658Z,12.70
2019-05-21T03:39:06.498Z,12.70
2019-05-21T03:41:54.315Z,12.70
2019-05-21T03:44:58.249Z,12.60
2019-05-21T03:47:31.630Z,12.70
2019-05-21T03:50:19.551Z,12.60
2019-05-21T03:53:07.774Z,12.60
2019-05-21T03:55:55.604Z,12.60
2019-05-21T03:58:43.386Z,12.60
2019-05-21T04:01:31.040Z,12.60
2019-05-21T04:04:19.132Z,12.60
2019-05-21T04:07:06.715Z,12.60
2019-05-21T04:09:54.617Z,12.70
2019-05-21T04:12:42.692Z,12.70
2019-05-21T04:15:30.636Z,12.70
2019-05-21T04:18:19.836Z,12.70
2019-05-21T04:21:07.541Z,12.70
2019-05-21T04:23:55.382Z,12.70
2019-05-21T04:26:43.439Z,12.70
2019-05-21T04:29:31.397Z,12.70
2019-05-21T04:32:19.340Z,12.70
2019-05-21T04:35:07.318Z,12.70
2019-05-21T04:37:55.376Z,12.70
2019-05-21T04:40:43.277Z,12.80
2019-05-21T04:43:31.269Z,12.80
2019-05-21T04:46:19.217Z,12.80
2019-05-21T04:49:07.174Z,12.80
2019-05-21T04:51:54.928Z,12.80
2019-05-21T04:54:42.560Z,12.80
2019-05-21T04:57:30.466Z,12.70
2019-05-21T05:00:18.619Z,12.80
2019-05-21T05:03:06.153Z,12.80
2019-05-21T05:05:54.001Z,12.80
2019-05-21T05:08:41.912Z,12.80
2019-05-21T05:11:29.773Z,12.70
2019-05-21T05:14:17.336Z,12.80
2019-05-21T05:17:05.282Z,12.80
2019-05-21T05:19:53.108Z,12.80
2019-05-21T05:22:41.015Z,12.80
2019-05-21T05:25:28.940Z,12.80
2019-05-21T05:28:16.616Z,12.80
2019-05-21T05:31:04.680Z,12.80
2019-05-21T05:33:52.788Z,12.80
2019-05-21T05:36:40.699Z,12.90
2019-05-21T05:39:32.178Z,12.90
2019-05-21T05:42:19.953Z,12.90
2019-05-21T05:45:08.919Z,12.90
2019-05-21T05:47:56.684Z,12.80
2019-05-21T05:50:51.906Z,12.80
2019-05-21T05:53:58.205Z,12.80
2019-05-21T05:56:46.354Z,12.80
2019-05-21T05:59:34.157Z,12.80
2019-05-21T06:02:22.090Z,12.80
2019-05-21T06:05:10.954Z,12.70
2019-05-21T06:08:00.352Z,12.70
2019-05-21T06:10:48.417Z,12.70
2019-05-21T06:13:36.127Z,12.80
2019-05-21T06:16:24.004Z,12.80
2019-05-21T06:19:12.083Z,12.80
2019-05-21T06:21:59.742Z,12.90
2019-05-21T06:24:47.628Z,12.90
2019-05-21T06:27:35.733Z,12.80
2019-05-21T06:30:23.732Z,12.70
2019-05-21T06:33:11.699Z,12.70
2019-05-21T06:35:59.531Z,12.70
2019-05-21T06:38:47.429Z,12.60
2019-05-21T06:41:35.350Z,12.60
2019-05-21T06:44:22.912Z,12.60
2019-05-21T06:47:10.868Z,12.60
2019-05-21T06:49:58.965Z,12.60
2019-05-21T06:52:47.164Z,12.60
2019-05-21T06:55:35.006Z,12.70
2019-05-21T06:58:22.995Z,12.60
2019-05-21T07:01:10.924Z,12.60
2019-05-21T07:03:58.763Z,12.60
2019-05-21T07:06:46.445Z,12.60
2019-05-21T07:09:34.282Z,12.60
2019-05-21T07:12:22.397Z,12.60
2019-05-21T07:15:10.683Z,12.60
2019-05-21T07:17:58.497Z,12.50
2019-05-21T07:20:46.346Z,12.50
2019-05-21T07:23:34.280Z,12.50
2019-05-21T07:26:22.099Z,12.60
2019-05-21T07:29:09.913Z,12.60
2019-05-21T07:31:57.975Z,12.60
2019-05-21T07:34:45.929Z,12.60
2019-05-21T07:37:34.098Z,12.60
2019-05-21T07:40:21.732Z,12.70
2019-05-21T07:43:09.504Z,12.70
2019-05-21T07:45:57.298Z,12.70
2019-05-21T07:48:44.901Z,12.80
2019-05-21T07:51:32.501Z,12.70
2019-05-21T07:54:20.180Z,12.80
2019-05-21T07:57:07.965Z,12.80
2019-05-21T07:59:55.421Z,12.90
2019-05-21T08:02:42.897Z,12.90
2019-05-21T08:05:30.830Z,12.90
2019-05-21T08:08:18.668Z,12.90
2019-05-21T08:11:06.519Z,12.90
2019-05-21T08:13:54.525Z,12.90
2019-05-21T08:16:42.663Z,12.90
2019-05-21T08:19:31.416Z,12.90
2019-05-21T08:22:19.232Z,12.90
2019-05-21T08:25:07.654Z,12.90
2019-05-21T08:27:55.365Z,12.90
2019-05-21T08:30:43.328Z,12.90
2019-05-21T08:33:31.207Z,13.00
2019-05-21T08:36:19.088Z,13.00
2019-05-21T08:39:07.849Z,13.10
2019-05-21T08:41:55.777Z,13.10
2019-05-21T08:44:43.767Z,13.10
2019-05-21T08:47:31.494Z,13.10
2019-05-21T08:50:19.632Z,13.10
2019-05-21T08:53:07.319Z,13.10
2019-05-21T08:55:55.101Z,13.10
2019-05-21T08:58:43.048Z,13.20
2019-05-21T09:01:30.973Z,13.20
2019-05-21T09:04:18.744Z,13.30
2019-05-21T09:07:06.669Z,13.30
2019-05-21T09:09:54.681Z,13.30
2019-05-21T09:12:42.401Z,13.20
2019-05-21T09:15:30.434Z,13.20
2019-05-21T09:18:18.288Z,13.20
2019-05-21T09:21:05.908Z,13.20
2019-05-21T09:23:53.575Z,13.20
2019-05-21T09:26:41.634Z,13.20
2019-05-21T09:29:29.376Z,13.30
2019-05-21T09:32:17.110Z,13.20
2019-05-21T09:35:07.649Z,13.30
2019-05-21T09:37:55.400Z,13.30
2019-05-21T09:40:43.037Z,13.30
2019-05-21T09:43:30.881Z,13.40
2019-05-21T09:46:18.700Z,13.50
2019-05-21T09:49:06.228Z,13.50
2019-05-21T09:51:54.061Z,13.50
2019-05-21T09:54:41.944Z,13.50
2019-05-21T09:57:34.479Z,13.50
2019-05-21T10:00:36.636Z,13.50
2019-05-21T10:03:26.441Z,13.50
2019-05-21T10:06:14.504Z,13.50
2019-05-21T10:09:03.451Z,13.50
2019-05-21T10:11:51.344Z,13.40
2019-05-21T10:14:38.913Z,13.30
2019-05-21T10:17:26.710Z,13.10
2019-05-21T10:20:14.860Z,13.00
2019-05-21T10:23:02.647Z,13.00
2019-05-21T10:25:50.292Z,13.00
2019-05-21T10:28:38.496Z,13.00
2019-05-21T10:31:26.305Z,13.00
2019-05-21T10:34:14.179Z,13.00
2019-05-21T10:37:01.942Z,13.10
2019-05-21T10:39:50.092Z,13.10
2019-05-21T10:42:38.018Z,13.10
2019-05-21T10:45:26.021Z,13.10
2019-05-21T10:48:13.883Z,13.20
2019-05-21T10:51:02.161Z,13.30
2019-05-21T10:53:49.737Z,13.30
2019-05-21T10:56:47.563Z,13.30
2019-05-21T10:59:27.270Z,13.30
2019-05-21T11:02:25.952Z,13.30
2019-05-21T11:05:19.264Z,13.30
2019-05-21T11:08:24.818Z,13.30
2019-05-21T11:10:57.821Z,13.30
2019-05-21T11:13:45.762Z,13.40
2019-05-21T11:16:33.656Z,13.40
2019-05-21T11:19:21.439Z,13.40
2019-05-21T11:22:09.402Z,13.40
2019-05-21T11:24:57.180Z,13.40
2019-05-21T11:27:45.159Z,13.40
2019-05-21T11:30:32.888Z,13.50
2019-05-21T11:33:20.636Z,13.60
2019-05-21T11:36:08.581Z,13.60
2019-05-21T11:38:56.419Z,13.70
2019-05-21T11:41:44.045Z,13.70
2019-05-21T11:44:31.797Z,13.60
2019-05-21T11:47:19.926Z,13.60
2019-05-21T11:50:09.667Z,13.60
2019-05-21T11:52:57.323Z,13.60
2019-05-21T11:55:45.008Z,13.60
2019-05-21T11:58:39.312Z,13.70
2019-05-21T12:01:22.204Z,13.70
2019-05-21T12:04:09.766Z,13.70
2019-05-21T12:06:57.593Z,13.70
2019-05-21T12:09:45.362Z,13.90
2019-05-21T12:12:33.392Z,14.00
2019-05-21T12:15:20.980Z,14.10
2019-05-21T12:18:08.576Z,14.10
2019-05-21T12:20:56.559Z,14.20
2019-05-21T12:23:44.457Z,14.10
2019-05-21T12:26:31.960Z,14.10
2019-05-21T12:29:19.645Z,14.10
2019-05-21T12:32:07.449Z,14.10
2019-05-21T12:34:55.096Z,14.10
2019-05-21T12:37:42.822Z,14.10
2019-05-21T12:40:30.612Z,14.10
2019-05-21T12:43:18.694Z,14.00
2019-05-21T12:46:06.618Z,14.00
2019-05-21T12:48:54.279Z,14.00
2019-05-21T12:51:42.360Z,14.00
2019-05-21T12:54:30.497Z,13.90
2019-05-21T12:57:18.079Z,13.80
2019-05-21T13:00:10.841Z,13.70
2019-05-21T13:02:58.353Z,13.60
2019-05-21T13:05:46.414Z,13.60
2019-05-21T13:08:34.245Z,13.50
2019-05-21T13:11:21.878Z,13.40
2019-05-21T13:14:13.929Z,13.40
2019-05-21T13:16:59.757Z,13.40
2019-05-21T13:19:47.622Z,13.30
2019-05-21T13:22:35.629Z,13.30
2019-05-21T13:25:23.565Z,13.20
2019-05-21T13:28:11.069Z,13.20
2019-05-21T13:30:58.757Z,13.20
2019-05-21T13:33:46.436Z,13.20
2019-05-21T13:36:34.217Z,13.20
2019-05-21T13:39:25.503Z,13.20
2019-05-21T13:42:12.178Z,13.20
2019-05-21T13:44:59.889Z,13.30
2019-05-21T13:47:47.739Z,13.30
2019-05-21T13:50:35.610Z,13.30
2019-05-21T13:53:23.389Z,13.30
2019-05-21T13:56:11.132Z,13.40
2019-05-21T13:58:58.838Z,13.30
2019-05-21T14:01:46.604Z,13.40
2019-05-21T14:04:34.983Z,13.40
2019-05-21T14:07:22.773Z,13.40
2019-05-21T14:10:16.283Z,13.40
2019-05-21T14:13:01.287Z,13.40
2019-05-21T14:15:49.017Z,13.40
2019-05-21T14:18:40.007Z,13.40
2019-05-21T14:21:28.020Z,13.30
2019-05-21T14:24:15.740Z,13.30
2019-05-21T14:27:03.157Z,13.40
2019-05-21T14:29:51.052Z,13.40
2019-05-21T14:32:38.768Z,13.40
2019-05-21T14:35:26.349Z,13.40
2019-05-21T14:38:13.982Z,13.40
2019-05-21T14:41:01.891Z,13.50
2019-05-21T14:43:49.612Z,13.50
2019-05-21T14:46:37.302Z,13.50
2019-05-21T14:49:25.054Z,13.50
2019-05-21T14:52:12.900Z,13.60
2019-05-21T14:55:00.956Z,13.60
2019-05-21T14:57:48.661Z,13.50
2019-05-21T15:00:37.706Z,13.50
2019-05-21T15:03:25.807Z,13.50
2019-05-21T15:06:13.700Z,13.40
2019-05-21T15:09:01.480Z,13.40
2019-05-21T15:11:49.343Z,13.30
2019-05-21T15:14:37.172Z,13.30
2019-05-21T15:17:25.174Z,13.40
2019-05-21T15:20:15.228Z,13.30
2019-05-21T15:23:03.616Z,13.30
2019-05-21T15:25:51.286Z,13.30
2019-05-21T15:28:39.408Z,13.30
2019-05-21T15:31:27.310Z,13.30
2019-05-21T15:34:15.259Z,13.30
2019-05-21T15:37:03.482Z,13.30
2019-05-21T15:39:51.580Z,13.30
2019-05-21T15:42:39.498Z,13.30
2019-05-21T15:45:27.190Z,13.30
2019-05-21T15:48:14.907Z,13.30
2019-05-21T15:51:03.041Z,13.20
2019-05-21T15:53:50.642Z,13.20
2019-05-21T15:56:38.672Z,13.20
2019-05-21T15:59:26.313Z,13.20
2019-05-21T16:02:14.409Z,13.20
2019-05-21T16:05:01.969Z,13.10
2019-05-21T16:07:49.925Z,13.10
2019-05-21T16:10:37.816Z,13.10
2019-05-21T16:13:25.881Z,13.20
2019-05-21T16:16:13.723Z,13.20
2019-05-21T16:19:01.453Z,13.20
2019-05-21T16:21:49.254Z,13.30
2019-05-21T16:24:37.201Z,13.30
2019-05-21T16:27:25.061Z,13.30
2019-05-21T16:30:13.601Z,13.30
2019-05-21T16:33:01.208Z,13.30
2019-05-21T16:35:49.313Z,13.30
2019-05-21T16:38:37.177Z,13.30
2019-05-21T16:41:25.088Z,13.30
2019-05-21T16:44:12.901Z,13.30
2019-05-21T16:47:00.489Z,13.30
2019-05-21T16:49:48.645Z,13.30
2019-05-21T16:52:36.337Z,13.30
2019-05-21T16:55:24.103Z,13.20
2019-05-21T16:58:12.185Z,13.20
2019-05-21T17:01:00.470Z,13.20
2019-05-21T17:03:59.406Z,13.20
2019-05-21T17:06:37.265Z,13.10
2019-05-21T17:09:28.126Z,13.20
2019-05-21T17:12:15.232Z,13.10
2019-05-21T17:15:03.464Z,13.10
2019-05-21T17:17:51.072Z,13.00
2019-05-21T17:20:38.733Z,13.00
2019-05-21T17:23:26.344Z,13.00
2019-05-21T17:26:14.217Z,13.00
2019-05-21T17:29:03.692Z,13.00
2019-05-21T17:31:51.400Z,13.00
2019-05-21T17:34:39.528Z,13.00
2019-05-21T17:37:27.408Z,13.00
2019-05-21T17:40:15.542Z,13.00
2019-05-21T17:43:03.574Z,13.00
2019-05-21T17:45:51.298Z,13.00
2019-05-21T17:48:39.028Z,12.90
2019-05-21T17:51:26.637Z,12.90
2019-05-21T17:54:14.568Z,13.00
2019-05-21T17:57:02.392Z,12.90
2019-05-21T17:59:50.402Z,12.90
2019-05-21T18:02:39.222Z,12.90
2019-05-21T18:05:27.419Z,12.90
2019-05-21T18:08:17.216Z,12.90
2019-05-21T18:11:05.617Z,12.80
2019-05-21T18:13:53.700Z,12.80
2019-05-21T18:16:42.031Z,12.80
2019-05-21T18:19:30.161Z,12.80
2019-05-21T18:22:19.558Z,12.80
2019-05-21T18:25:08.253Z,12.80
2019-05-21T18:27:56.413Z,12.80
2019-05-21T18:30:44.801Z,12.80
2019-05-21T18:33:33.184Z,12.80
2019-05-21T18:36:20.749Z,12.70
2019-05-21T18:39:08.629Z,12.70
2019-05-21T18:41:56.283Z,12.70
2019-05-21T18:44:44.520Z,12.80
2019-05-21T18:47:32.522Z,12.80
2019-05-21T18:50:34.790Z,12.70
2019-05-21T18:53:10.351Z,12.70
2019-05-21T18:55:58.300Z,12.70
2019-05-21T18:58:46.425Z,12.70
2019-05-21T19:01:34.044Z,12.70
2019-05-21T19:04:21.972Z,12.70
2019-05-21T19:07:10.856Z,12.60
2019-05-21T19:10:01.013Z,12.60
2019-05-21T19:12:49.537Z,12.60
2019-05-21T19:15:37.144Z,12.70
2019-05-21T19:18:24.984Z,12.70
2019-05-21T19:21:12.988Z,12.70
2019-05-21T19:24:00.829Z,12.70
2019-05-21T19:26:48.774Z,12.70
2019-05-21T19:29:36.461Z,12.70
2019-05-21T19:32:24.420Z,12.70
2019-05-21T19:35:12.379Z,12.70
2019-05-21T19:38:00.232Z,12.70
2019-05-21T19:40:47.932Z,12.70
2019-05-21T19:43:36.088Z,12.70
2019-05-21T19:46:23.925Z,12.70
2019-05-21T19:49:11.643Z,12.70
2019-05-21T19:51:59.467Z,12.70
2019-05-21T19:54:47.856Z,12.70
2019-05-21T19:57:35.893Z,12.70
2019-05-21T20:00:24.101Z,12.70
2019-05-21T20:03:12.348Z,12.80
2019-05-21T20:06:00.736Z,12.70
2019-05-21T20:08:48.437Z,12.80
2019-05-21T20:11:36.993Z,12.80
2019-05-21T20:14:25.019Z,12.70
2019-05-21T20:17:14.655Z,12.70
2019-05-21T20:20:05.441Z,12.70
2019-05-21T20:22:53.454Z,12.80
2019-05-21T20:25:55.366Z,12.80
2019-05-21T20:28:32.300Z,12.80
2019-05-21T20:31:21.728Z,12.80
2019-05-21T20:34:11.716Z,12.80
2019-05-21T20:36:59.613Z,12.80
2019-05-21T20:39:48.614Z,12.80
2019-05-21T20:42:37.381Z,12.80
2019-05-21T20:45:25.297Z,12.80
2019-05-21T20:48:14.605Z,12.80
2019-05-21T20:51:04.089Z,12.80
2019-05-21T20:53:52.031Z,12.80
2019-05-21T20:56:40.005Z,12.80
2019-05-21T20:59:28.092Z,12.80
2019-05-21T21:02:16.822Z,12.80
2019-05-21T21:05:06.326Z,12.80
2019-05-21T21:07:54.358Z,12.80
2019-05-21T21:10:42.316Z,12.80
2019-05-21T21:13:30.358Z,12.90
2019-05-21T21:16:18.561Z,12.80
2019-05-21T21:19:06.120Z,12.80
2019-05-21T21:21:53.729Z,12.80
2019-05-21T21:24:41.798Z,12.80
2019-05-21T21:27:29.980Z,12.80
2019-05-21T21:30:18.255Z,12.80
2019-05-21T21:33:08.011Z,12.80
2019-05-21T21:35:56.176Z,12.80
2019-05-21T21:38:44.501Z,12.80
2019-05-21T21:41:33.085Z,12.80
2019-05-21T21:44:33.554Z,12.80
2019-05-21T21:47:12.368Z,12.80
2019-05-21T21:50:01.057Z,12.80
2019-05-21T21:52:49.960Z,12.80
2019-05-21T21:55:37.789Z,12.80
2019-05-21T21:58:25.621Z,12.80
2019-05-21T22:01:40.138Z,12.80
2019-05-21T22:04:32.048Z,12.80
2019-05-21T22:07:20.489Z,12.80
2019-05-21T22:10:09.430Z,12.80
2019-05-21T22:12:57.173Z,12.80
2019-05-21T22:15:46.905Z,12.80
2019-05-21T22:18:34.827Z,12.80
2019-05-21T22:21:23.129Z,12.80
2019-05-21T22:24:11.725Z,12.80
2019-05-21T22:26:59.332Z,12.90
2019-05-21T22:29:47.084Z,12.90
2019-05-21T22:32:35.045Z,12.90
2019-05-21T22:35:22.710Z,12.90
2019-05-21T22:38:11.048Z,12.90
2019-05-21T22:40:58.773Z,12.90
2019-05-21T22:43:46.921Z,12.80
2019-05-21T22:46:34.906Z,12.80
2019-05-21T22:49:23.028Z,12.80
2019-05-21T22:52:10.665Z,12.80
2019-05-21T22:54:58.652Z,12.80
2019-05-21T22:57:46.487Z,12.80
2019-05-21T23:00:35.327Z,12.80
2019-05-21T23:03:23.385Z,12.80
2019-05-21T23:06:11.693Z,12.80
2019-05-21T23:08:59.702Z,12.80
2019-05-21T23:11:47.655Z,12.80
2019-05-21T23:14:35.581Z,12.80
2019-05-21T23:17:24.572Z,12.80
2019-05-21T23:20:14.046Z,12.80
2019-05-21T23:23:03.480Z,12.80
2019-05-21T23:25:51.380Z,12.80
2019-05-21T23:31:27.788Z,12.80
2019-05-21T23:34:17.580Z,12.80
2019-05-21T23:37:07.456Z,12.70
2019-05-21T23:39:55.468Z,12.80
2019-05-21T23:42:43.230Z,12.70
2019-05-21T23:45:31.488Z,12.70
2019-05-21T23:48:19.388Z,12.70
2019-05-21T23:51:07.312Z,12.80
2019-05-21T23:53:55.157Z,12.70
2019-05-21T23:56:43.236Z,12.80
2019-05-21T23:59:31.517Z,12.70
